sensor_id;sensor_type;location;lat;lon;timestamp;temperature;humidity
13684;DHT22;6914;53.552;9.908;2023-02-05T00:01:27;-0.50;99.90
13684;DHT22;6914;53.552;9.908;2023-02-05T00:03:56;-0.60;99.90
13684;DHT22;6914;53.552;9.908;2023-02-05T00:06:22;-0.30;99.90
13684;DHT22;6914;53.552;9.908;2023-02-05T00:08:49;-0.50;99.90
13684;DHT22;6914;53.552;9.908;2023-02-05T00:11:16;-0.70;99.90
13684;DHT22;6914;53.552;9.908;2023-02-05T00:13:43;-0.20;99.90
13684;DHT22;6914;53.552;9.908;2023-02-05T00:16:15;-0.60;99.90
13684;DHT22;6914;53.552;9.908;2023-02-05T00:18:42;-0.60;99.90
13684;DHT22;6914;53.552;9.908;2023-02-05T00:21:15;-0.60;99.90
13684;DHT22;6914;53.552;9.908;2023-02-05T00:23:42;-0.80;99.90
13684;DHT22;6914;53.552;9.908;2023-02-05T00:26:11;-0.60;99.90
13684;DHT22;6914;53.552;9.908;2023-02-05T00:28:41;-0.60;99.90
13684;DHT22;6914;53.552;9.908;2023-02-05T00:31:11;-0.80;99.90
13684;DHT22;6914;53.552;9.908;2023-02-05T00:33:38;-0.80;99.90
13684;DHT22;6914;53.552;9.908;2023-02-05T00:36:06;-0.70;99.90
13684;DHT22;6914;53.552;9.908;2023-02-05T00:38:35;-0.70;99.90
13684;DHT22;6914;53.552;9.908;2023-02-05T00:41:02;-1.00;99.90
13684;DHT22;6914;53.552;9.908;2023-02-05T00:43:30;-0.70;99.90
13684;DHT22;6914;53.552;9.908;2023-02-05T00:45:57;-1.00;99.90
13684;DHT22;6914;53.552;9.908;2023-02-05T00:48:24;-1.10;99.90
13684;DHT22;6914;53.552;9.908;2023-02-05T00:50:51;-0.90;99.90
13684;DHT22;6914;53.552;9.908;2023-02-05T00:53:22;-0.90;99.90
13684;DHT22;6914;53.552;9.908;2023-02-05T00:55:51;-1.00;99.90
13684;DHT22;6914;53.552;9.908;2023-02-05T00:58:18;-0.20;99.90
13684;DHT22;6914;53.552;9.908;2023-02-05T01:00:46;-0.80;99.90
13684;DHT22;6914;53.552;9.908;2023-02-05T01:03:13;-0.90;99.90
13684;DHT22;6914;53.552;9.908;2023-02-05T01:05:40;-0.80;99.90
13684;DHT22;6914;53.552;9.908;2023-02-05T01:08:10;-0.80;99.90
13684;DHT22;6914;53.552;9.908;2023-02-05T01:10:43;-0.70;99.90
13684;DHT22;6914;53.552;9.908;2023-02-05T01:13:15;-0.90;99.90
13684;DHT22;6914;53.552;9.908;2023-02-05T01:15:42;-0.90;99.90
13684;DHT22;6914;53.552;9.908;2023-02-05T01:18:09;-1.30;99.90
13684;DHT22;6914;53.552;9.908;2023-02-05T01:20:39;-0.90;99.90
13684;DHT22;6914;53.552;9.908;2023-02-05T01:23:06;0.00;99.90
13684;DHT22;6914;53.552;9.908;2023-02-05T01:25:34;-1.00;99.90
13684;DHT22;6914;53.552;9.908;2023-02-05T01:28:01;-1.00;99.90
13684;DHT22;6914;53.552;9.908;2023-02-05T01:30:29;-1.20;99.90
13684;DHT22;6914;53.552;9.908;2023-02-05T01:32:56;-0.90;99.90
13684;DHT22;6914;53.552;9.908;2023-02-05T01:35:23;-1.00;99.90
13684;DHT22;6914;53.552;9.908;2023-02-05T01:37:50;-1.00;99.90
13684;DHT22;6914;53.552;9.908;2023-02-05T01:40:17;-0.50;99.90
13684;DHT22;6914;53.552;9.908;2023-02-05T01:42:44;-1.00;99.90
13684;DHT22;6914;53.552;9.908;2023-02-05T01:48:43;-1.00;99.90
13684;DHT22;6914;53.552;9.908;2023-02-05T01:51:13;-1.50;99.90
13684;DHT22;6914;53.552;9.908;2023-02-05T01:53:41;-1.20;99.90
13684;DHT22;6914;53.552;9.908;2023-02-05T01:56:13;-1.00;99.90
13684;DHT22;6914;53.552;9.908;2023-02-05T01:58:45;-1.20;99.90
13684;DHT22;6914;53.552;9.908;2023-02-05T02:01:13;-1.00;99.90
13684;DHT22;6914;53.552;9.908;2023-02-05T02:03:42;-1.10;99.90
13684;DHT22;6914;53.552;9.908;2023-02-05T02:06:10;-0.80;99.90
13684;DHT22;6914;53.552;9.908;2023-02-05T02:08:38;-2.20;99.90
13684;DHT22;6914;53.552;9.908;2023-02-05T02:11:06;-1.10;99.90
13684;DHT22;6914;53.552;9.908;2023-02-05T02:13:35;-1.00;99.90
13684;DHT22;6914;53.552;9.908;2023-02-05T02:16:03;-1.20;99.90
13684;DHT22;6914;53.552;9.908;2023-02-05T02:18:32;-1.10;99.90
13684;DHT22;6914;53.552;9.908;2023-02-05T02:24:25;-0.80;99.90
13684;DHT22;6914;53.552;9.908;2023-02-05T02:27:35;-1.00;99.90
13684;DHT22;6914;53.552;9.908;2023-02-05T02:30:07;-0.80;99.90
13684;DHT22;6914;53.552;9.908;2023-02-05T02:32:38;-0.50;99.90
13684;DHT22;6914;53.552;9.908;2023-02-05T02:35:12;-0.70;99.90
13684;DHT22;6914;53.552;9.908;2023-02-05T02:37:46;-0.80;99.90
13684;DHT22;6914;53.552;9.908;2023-02-05T02:40:18;-1.20;99.90
13684;DHT22;6914;53.552;9.908;2023-02-05T02:42:50;-0.70;99.90
13684;DHT22;6914;53.552;9.908;2023-02-05T02:45:21;-0.90;99.90
13684;DHT22;6914;53.552;9.908;2023-02-05T02:47:54;-0.80;99.90
13684;DHT22;6914;53.552;9.908;2023-02-05T02:50:26;-0.80;99.90
13684;DHT22;6914;53.552;9.908;2023-02-05T02:52:59;-0.90;99.90
13684;DHT22;6914;53.552;9.908;2023-02-05T02:55:28;-1.10;99.90
13684;DHT22;6914;53.552;9.908;2023-02-05T02:58:00;-0.80;99.90
13684;DHT22;6914;53.552;9.908;2023-02-05T03:00:27;-0.80;99.90
13684;DHT22;6914;53.552;9.908;2023-02-05T03:03:00;-0.70;99.90
13684;DHT22;6914;53.552;9.908;2023-02-05T03:05:29;-0.80;99.90
13684;DHT22;6914;53.552;9.908;2023-02-05T03:08:00;-0.80;99.90
13684;DHT22;6914;53.552;9.908;2023-02-05T03:10:35;-2.00;99.90
13684;DHT22;6914;53.552;9.908;2023-02-05T03:13:08;-0.80;99.90
13684;DHT22;6914;53.552;9.908;2023-02-05T03:15:35;-0.80;99.90
13684;DHT22;6914;53.552;9.908;2023-02-05T03:18:02;-0.90;99.90
13684;DHT22;6914;53.552;9.908;2023-02-05T03:20:32;-0.90;99.90
13684;DHT22;6914;53.552;9.908;2023-02-05T03:23:00;-0.90;99.90
13684;DHT22;6914;53.552;9.908;2023-02-05T03:25:29;-0.50;99.90
13684;DHT22;6914;53.552;9.908;2023-02-05T03:27:56;-0.80;99.90
13684;DHT22;6914;53.552;9.908;2023-02-05T03:30:28;-0.80;99.90
13684;DHT22;6914;53.552;9.908;2023-02-05T03:33:03;-0.70;99.90
13684;DHT22;6914;53.552;9.908;2023-02-05T03:35:37;-0.60;99.90
13684;DHT22;6914;53.552;9.908;2023-02-05T03:38:22;-0.90;99.90
13684;DHT22;6914;53.552;9.908;2023-02-05T03:40:56;-0.80;99.90
13684;DHT22;6914;53.552;9.908;2023-02-05T03:43:31;-1.00;99.90
13684;DHT22;6914;53.552;9.908;2023-02-05T03:46:07;-0.70;99.90
13684;DHT22;6914;53.552;9.908;2023-02-05T03:48:46;-0.60;99.90
13684;DHT22;6914;53.552;9.908;2023-02-05T03:51:26;-0.90;99.90
13684;DHT22;6914;53.552;9.908;2023-02-05T03:54:02;-0.80;99.90
13684;DHT22;6914;53.552;9.908;2023-02-05T03:56:35;-1.20;99.90
13684;DHT22;6914;53.552;9.908;2023-02-05T03:59:05;-0.80;99.90
13684;DHT22;6914;53.552;9.908;2023-02-05T04:01:34;-0.80;99.90
13684;DHT22;6914;53.552;9.908;2023-02-05T04:04:01;-0.60;99.90
13684;DHT22;6914;53.552;9.908;2023-02-05T04:06:28;-0.80;99.90
13684;DHT22;6914;53.552;9.908;2023-02-05T04:08:55;-0.80;99.90
13684;DHT22;6914;53.552;9.908;2023-02-05T04:11:22;-0.70;99.90
13684;DHT22;6914;53.552;9.908;2023-02-05T04:13:48;-0.80;99.90
13684;DHT22;6914;53.552;9.908;2023-02-05T04:16:17;-0.80;99.90
13684;DHT22;6914;53.552;9.908;2023-02-05T04:18:45;-0.50;99.90
13684;DHT22;6914;53.552;9.908;2023-02-05T04:21:12;-0.50;99.90
13684;DHT22;6914;53.552;9.908;2023-02-05T04:23:39;-0.60;99.90
13684;DHT22;6914;53.552;9.908;2023-02-05T04:26:06;-0.40;99.90
13684;DHT22;6914;53.552;9.908;2023-02-05T04:28:32;-0.60;99.90
13684;DHT22;6914;53.552;9.908;2023-02-05T04:30:59;-0.20;99.90
13684;DHT22;6914;53.552;9.908;2023-02-05T04:33:26;-0.60;99.90
13684;DHT22;6914;53.552;9.908;2023-02-05T04:35:58;-0.60;99.90
13684;DHT22;6914;53.552;9.908;2023-02-05T04:38:26;-0.60;99.90
13684;DHT22;6914;53.552;9.908;2023-02-05T04:40:53;-0.60;99.90
13684;DHT22;6914;53.552;9.908;2023-02-05T04:43:20;-0.50;99.90
13684;DHT22;6914;53.552;9.908;2023-02-05T04:45:47;-0.50;99.90
13684;DHT22;6914;53.552;9.908;2023-02-05T04:48:15;-0.60;99.90
13684;DHT22;6914;53.552;9.908;2023-02-05T04:50:43;-0.20;99.90
13684;DHT22;6914;53.552;9.908;2023-02-05T04:53:12;-0.90;99.90
13684;DHT22;6914;53.552;9.908;2023-02-05T04:55:39;-0.30;99.90
13684;DHT22;6914;53.552;9.908;2023-02-05T04:58:06;-0.70;99.90
13684;DHT22;6914;53.552;9.908;2023-02-05T05:00:33;-0.70;99.90
13684;DHT22;6914;53.552;9.908;2023-02-05T05:03:00;-0.90;99.90
13684;DHT22;6914;53.552;9.908;2023-02-05T05:05:27;-0.50;99.90
13684;DHT22;6914;53.552;9.908;2023-02-05T05:07:54;-0.40;99.90
13684;DHT22;6914;53.552;9.908;2023-02-05T05:10:22;-0.50;99.90
13684;DHT22;6914;53.552;9.908;2023-02-05T05:12:49;-0.60;99.90
13684;DHT22;6914;53.552;9.908;2023-02-05T05:15:19;-0.30;99.90
13684;DHT22;6914;53.552;9.908;2023-02-05T05:17:45;-0.70;99.90
13684;DHT22;6914;53.552;9.908;2023-02-05T05:20:12;-0.60;99.90
13684;DHT22;6914;53.552;9.908;2023-02-05T05:22:39;-0.70;99.90
13684;DHT22;6914;53.552;9.908;2023-02-05T05:25:06;-0.40;99.90
13684;DHT22;6914;53.552;9.908;2023-02-05T05:27:34;-0.50;99.90
13684;DHT22;6914;53.552;9.908;2023-02-05T05:30:01;-0.40;99.90
13684;DHT22;6914;53.552;9.908;2023-02-05T05:32:28;-0.60;99.90
13684;DHT22;6914;53.552;9.908;2023-02-05T05:34:55;-0.60;99.90
13684;DHT22;6914;53.552;9.908;2023-02-05T05:37:22;-0.50;99.90
13684;DHT22;6914;53.552;9.908;2023-02-05T05:39:48;-0.70;99.90
13684;DHT22;6914;53.552;9.908;2023-02-05T05:42:34;-0.70;99.90
13684;DHT22;6914;53.552;9.908;2023-02-05T05:45:20;-0.60;99.90
13684;DHT22;6914;53.552;9.908;2023-02-05T05:47:47;-0.60;99.90
13684;DHT22;6914;53.552;9.908;2023-02-05T05:50:15;-0.50;99.90
13684;DHT22;6914;53.552;9.908;2023-02-05T05:52:42;-0.50;99.90
13684;DHT22;6914;53.552;9.908;2023-02-05T05:55:09;-0.50;99.90
13684;DHT22;6914;53.552;9.908;2023-02-05T05:57:37;-0.80;99.90
13684;DHT22;6914;53.552;9.908;2023-02-05T06:00:04;-0.40;99.90
13684;DHT22;6914;53.552;9.908;2023-02-05T06:02:31;-0.50;99.90
13684;DHT22;6914;53.552;9.908;2023-02-05T06:04:58;-0.90;99.90
13684;DHT22;6914;53.552;9.908;2023-02-05T06:07:26;-1.70;99.90
13684;DHT22;6914;53.552;9.908;2023-02-05T06:09:53;1.00;99.90
13684;DHT22;6914;53.552;9.908;2023-02-05T06:12:20;-1.50;99.90
13684;DHT22;6914;53.552;9.908;2023-02-05T06:14:48;-0.40;99.90
13684;DHT22;6914;53.552;9.908;2023-02-05T06:17:15;-0.40;99.90
13684;DHT22;6914;53.552;9.908;2023-02-05T06:19:42;-0.40;99.90
13684;DHT22;6914;53.552;9.908;2023-02-05T06:22:09;-0.40;99.90
13684;DHT22;6914;53.552;9.908;2023-02-05T06:24:36;-0.50;99.90
13684;DHT22;6914;53.552;9.908;2023-02-05T06:27:02;-0.60;99.90
13684;DHT22;6914;53.552;9.908;2023-02-05T06:29:29;-0.40;99.90
13684;DHT22;6914;53.552;9.908;2023-02-05T06:31:57;-0.60;99.90
13684;DHT22;6914;53.552;9.908;2023-02-05T06:34:24;-0.70;99.90
13684;DHT22;6914;53.552;9.908;2023-02-05T06:36:51;-0.80;99.90
13684;DHT22;6914;53.552;9.908;2023-02-05T06:39:19;-0.60;99.90
13684;DHT22;6914;53.552;9.908;2023-02-05T06:41:48;-0.60;99.90
13684;DHT22;6914;53.552;9.908;2023-02-05T06:44:15;-0.70;99.90
13684;DHT22;6914;53.552;9.908;2023-02-05T06:46:42;-0.40;99.90
13684;DHT22;6914;53.552;9.908;2023-02-05T06:49:10;-0.60;99.90
13684;DHT22;6914;53.552;9.908;2023-02-05T06:51:37;-0.50;99.90
13684;DHT22;6914;53.552;9.908;2023-02-05T06:54:04;-0.90;99.90
13684;DHT22;6914;53.552;9.908;2023-02-05T06:56:31;-0.60;99.90
13684;DHT22;6914;53.552;9.908;2023-02-05T06:58:58;-0.70;99.90
13684;DHT22;6914;53.552;9.908;2023-02-05T07:01:25;-0.50;99.90
13684;DHT22;6914;53.552;9.908;2023-02-05T07:03:52;-0.60;99.90
13684;DHT22;6914;53.552;9.908;2023-02-05T07:06:24;-0.80;99.90
13684;DHT22;6914;53.552;9.908;2023-02-05T07:08:51;-0.40;99.90
13684;DHT22;6914;53.552;9.908;2023-02-05T07:11:24;-0.80;99.90
13684;DHT22;6914;53.552;9.908;2023-02-05T07:13:51;0.50;99.90
13684;DHT22;6914;53.552;9.908;2023-02-05T07:16:18;-0.70;99.90
13684;DHT22;6914;53.552;9.908;2023-02-05T07:18:47;-0.60;99.90
13684;DHT22;6914;53.552;9.908;2023-02-05T07:21:15;-0.70;99.90
13684;DHT22;6914;53.552;9.908;2023-02-05T07:23:44;-0.50;99.90
13684;DHT22;6914;53.552;9.908;2023-02-05T07:26:12;-0.50;99.90
13684;DHT22;6914;53.552;9.908;2023-02-05T07:28:40;-0.50;99.90
13684;DHT22;6914;53.552;9.908;2023-02-05T07:31:09;-0.30;99.90
13684;DHT22;6914;53.552;9.908;2023-02-05T07:33:36;-0.60;99.90
13684;DHT22;6914;53.552;9.908;2023-02-05T07:36:04;1.00;99.90
13684;DHT22;6914;53.552;9.908;2023-02-05T07:38:32;-0.30;99.90
13684;DHT22;6914;53.552;9.908;2023-02-05T07:41:04;-0.50;99.90
13684;DHT22;6914;53.552;9.908;2023-02-05T07:43:30;-0.40;99.90
13684;DHT22;6914;53.552;9.908;2023-02-05T07:45:58;-0.40;99.90
13684;DHT22;6914;53.552;9.908;2023-02-05T07:48:25;-0.40;99.90
13684;DHT22;6914;53.552;9.908;2023-02-05T07:50:52;-0.40;99.90
13684;DHT22;6914;53.552;9.908;2023-02-05T07:53:19;-0.10;99.90
13684;DHT22;6914;53.552;9.908;2023-02-05T07:55:49;-0.50;99.90
13684;DHT22;6914;53.552;9.908;2023-02-05T07:58:18;-0.50;99.90
13684;DHT22;6914;53.552;9.908;2023-02-05T08:00:47;-0.30;99.90
13684;DHT22;6914;53.552;9.908;2023-02-05T08:03:14;-0.50;99.90
13684;DHT22;6914;53.552;9.908;2023-02-05T08:05:41;-0.40;99.90
13684;DHT22;6914;53.552;9.908;2023-02-05T08:08:09;-0.60;99.90
13684;DHT22;6914;53.552;9.908;2023-02-05T08:10:37;-0.30;99.90
13684;DHT22;6914;53.552;9.908;2023-02-05T08:13:04;-0.50;99.90
13684;DHT22;6914;53.552;9.908;2023-02-05T08:15:32;-0.40;99.90
13684;DHT22;6914;53.552;9.908;2023-02-05T08:17:59;-0.50;99.90
13684;DHT22;6914;53.552;9.908;2023-02-05T08:20:26;-0.40;99.90
13684;DHT22;6914;53.552;9.908;2023-02-05T08:22:53;-0.30;99.90
13684;DHT22;6914;53.552;9.908;2023-02-05T08:25:23;-0.10;99.90
13684;DHT22;6914;53.552;9.908;2023-02-05T08:27:49;-0.50;99.90
13684;DHT22;6914;53.552;9.908;2023-02-05T08:30:17;-0.40;99.90
13684;DHT22;6914;53.552;9.908;2023-02-05T08:32:48;-0.30;99.90
13684;DHT22;6914;53.552;9.908;2023-02-05T08:35:15;-0.40;99.90
13684;DHT22;6914;53.552;9.908;2023-02-05T08:37:42;-0.10;99.90
13684;DHT22;6914;53.552;9.908;2023-02-05T08:40:10;-0.10;99.90
13684;DHT22;6914;53.552;9.908;2023-02-05T08:42:37;0.10;99.90
13684;DHT22;6914;53.552;9.908;2023-02-05T08:45:04;0.10;99.90
13684;DHT22;6914;53.552;9.908;2023-02-05T08:47:33;1.70;99.90
13684;DHT22;6914;53.552;9.908;2023-02-05T08:50:02;0.20;99.90
13684;DHT22;6914;53.552;9.908;2023-02-05T08:52:28;0.30;99.90
13684;DHT22;6914;53.552;9.908;2023-02-05T08:54:55;0.30;99.90
13684;DHT22;6914;53.552;9.908;2023-02-05T08:57:26;0.30;99.90
13684;DHT22;6914;53.552;9.908;2023-02-05T08:59:54;0.30;99.90
13684;DHT22;6914;53.552;9.908;2023-02-05T09:02:24;1.90;99.90
13684;DHT22;6914;53.552;9.908;2023-02-05T09:04:51;1.00;99.90
13684;DHT22;6914;53.552;9.908;2023-02-05T09:07:25;0.40;99.90
13684;DHT22;6914;53.552;9.908;2023-02-05T09:09:52;-0.20;99.90
13684;DHT22;6914;53.552;9.908;2023-02-05T09:12:19;0.70;99.90
13684;DHT22;6914;53.552;9.908;2023-02-05T09:14:48;0.60;99.90
13684;DHT22;6914;53.552;9.908;2023-02-05T09:17:15;0.40;99.90
13684;DHT22;6914;53.552;9.908;2023-02-05T09:19:42;0.60;99.90
13684;DHT22;6914;53.552;9.908;2023-02-05T09:22:09;0.50;99.90
13684;DHT22;6914;53.552;9.908;2023-02-05T09:24:37;0.50;99.90
13684;DHT22;6914;53.552;9.908;2023-02-05T09:27:04;0.80;99.90
13684;DHT22;6914;53.552;9.908;2023-02-05T09:29:31;0.70;99.90
13684;DHT22;6914;53.552;9.908;2023-02-05T09:31:58;0.70;99.90
13684;DHT22;6914;53.552;9.908;2023-02-05T09:34:25;0.50;99.90
13684;DHT22;6914;53.552;9.908;2023-02-05T09:36:52;0.80;99.90
13684;DHT22;6914;53.552;9.908;2023-02-05T09:39:19;0.80;99.90
13684;DHT22;6914;53.552;9.908;2023-02-05T09:41:57;0.80;99.90
13684;DHT22;6914;53.552;9.908;2023-02-05T09:44:44;0.70;99.90
13684;DHT22;6914;53.552;9.908;2023-02-05T09:47:17;1.00;99.90
13684;DHT22;6914;53.552;9.908;2023-02-05T09:49:51;0.90;99.90
13684;DHT22;6914;53.552;9.908;2023-02-05T09:52:23;0.90;99.90
13684;DHT22;6914;53.552;9.908;2023-02-05T09:54:56;0.90;99.90
13684;DHT22;6914;53.552;9.908;2023-02-05T09:57:32;1.30;99.90
13684;DHT22;6914;53.552;9.908;2023-02-05T10:00:00;0.60;99.90
13684;DHT22;6914;53.552;9.908;2023-02-05T10:02:30;0.90;99.90
13684;DHT22;6914;53.552;9.908;2023-02-05T10:05:02;0.90;99.90
13684;DHT22;6914;53.552;9.908;2023-02-05T10:07:38;0.90;99.90
13684;DHT22;6914;53.552;9.908;2023-02-05T10:10:26;1.20;99.90
13684;DHT22;6914;53.552;9.908;2023-02-05T10:13:26;1.30;99.90
13684;DHT22;6914;53.552;9.908;2023-02-05T10:22:06;1.40;99.90
13684;DHT22;6914;53.552;9.908;2023-02-05T10:27:45;1.50;99.90
13684;DHT22;6914;53.552;9.908;2023-02-05T10:30:24;1.30;99.90
13684;DHT22;6914;53.552;9.908;2023-02-05T10:32:58;1.50;99.90
13684;DHT22;6914;53.552;9.908;2023-02-05T10:35:31;1.70;99.90
13684;DHT22;6914;53.552;9.908;2023-02-05T10:38:11;1.90;99.90
13684;DHT22;6914;53.552;9.908;2023-02-05T10:40:40;1.50;99.90
13684;DHT22;6914;53.552;9.908;2023-02-05T10:43:18;1.50;99.90
13684;DHT22;6914;53.552;9.908;2023-02-05T10:45:51;1.60;99.90
13684;DHT22;6914;53.552;9.908;2023-02-05T10:48:39;2.20;99.90
13684;DHT22;6914;53.552;9.908;2023-02-05T10:51:11;1.70;99.90
13684;DHT22;6914;53.552;9.908;2023-02-05T10:53:39;1.60;99.90
13684;DHT22;6914;53.552;9.908;2023-02-05T10:56:07;1.70;99.90
13684;DHT22;6914;53.552;9.908;2023-02-05T10:58:39;1.50;99.90
13684;DHT22;6914;53.552;9.908;2023-02-05T11:01:13;1.20;99.90
13684;DHT22;6914;53.552;9.908;2023-02-05T11:03:53;1.10;99.90
13684;DHT22;6914;53.552;9.908;2023-02-05T11:06:25;1.60;99.90
13684;DHT22;6914;53.552;9.908;2023-02-05T11:08:53;1.40;99.90
13684;DHT22;6914;53.552;9.908;2023-02-05T11:11:23;1.50;99.90
13684;DHT22;6914;53.552;9.908;2023-02-05T11:13:54;1.90;99.90
13684;DHT22;6914;53.552;9.908;2023-02-05T11:16:35;1.80;99.90
13684;DHT22;6914;53.552;9.908;2023-02-05T11:19:03;1.90;99.90
13684;DHT22;6914;53.552;9.908;2023-02-05T11:21:48;1.90;99.90
13684;DHT22;6914;53.552;9.908;2023-02-05T11:24:27;2.10;99.90
13684;DHT22;6914;53.552;9.908;2023-02-05T11:27:23;2.10;99.90
13684;DHT22;6914;53.552;9.908;2023-02-05T11:29:51;2.10;99.90
13684;DHT22;6914;53.552;9.908;2023-02-05T11:32:29;3.20;99.90
13684;DHT22;6914;53.552;9.908;2023-02-05T11:35:08;2.30;99.90
13684;DHT22;6914;53.552;9.908;2023-02-05T11:37:39;2.20;99.90
13684;DHT22;6914;53.552;9.908;2023-02-05T11:40:18;2.70;99.90
13684;DHT22;6914;53.552;9.908;2023-02-05T11:42:56;2.60;99.90
13684;DHT22;6914;53.552;9.908;2023-02-05T11:45:23;2.50;99.90
13684;DHT22;6914;53.552;9.908;2023-02-05T11:47:53;2.30;99.90
13684;DHT22;6914;53.552;9.908;2023-02-05T11:50:24;2.30;99.90
13684;DHT22;6914;53.552;9.908;2023-02-05T11:52:52;2.30;99.90
13684;DHT22;6914;53.552;9.908;2023-02-05T11:55:25;2.70;99.90
13684;DHT22;6914;53.552;9.908;2023-02-05T11:57:58;2.70;99.90
13684;DHT22;6914;53.552;9.908;2023-02-05T12:00:26;2.40;99.90
13684;DHT22;6914;53.552;9.908;2023-02-05T12:03:09;2.70;99.90
13684;DHT22;6914;53.552;9.908;2023-02-05T12:05:45;2.70;99.90
13684;DHT22;6914;53.552;9.908;2023-02-05T12:08:23;2.50;99.90
13684;DHT22;6914;53.552;9.908;2023-02-05T12:10:59;2.30;99.90
13684;DHT22;6914;53.552;9.908;2023-02-05T12:13:39;2.30;99.90
13684;DHT22;6914;53.552;9.908;2023-02-05T12:16:16;2.30;99.90
13684;DHT22;6914;53.552;9.908;2023-02-05T12:18:54;2.10;99.90
13684;DHT22;6914;53.552;9.908;2023-02-05T12:21:28;2.10;99.90
13684;DHT22;6914;53.552;9.908;2023-02-05T12:24:13;2.20;99.90
13684;DHT22;6914;53.552;9.908;2023-02-05T12:26:44;2.40;99.90
13684;DHT22;6914;53.552;9.908;2023-02-05T12:29:22;3.10;99.90
13684;DHT22;6914;53.552;9.908;2023-02-05T12:32:00;2.80;99.90
13684;DHT22;6914;53.552;9.908;2023-02-05T12:34:39;2.50;99.90
13684;DHT22;6914;53.552;9.908;2023-02-05T12:37:17;2.30;99.90
13684;DHT22;6914;53.552;9.908;2023-02-05T12:39:52;2.30;99.90
13684;DHT22;6914;53.552;9.908;2023-02-05T12:42:31;2.40;99.90
13684;DHT22;6914;53.552;9.908;2023-02-05T12:45:20;2.50;99.90
13684;DHT22;6914;53.552;9.908;2023-02-05T12:48:00;3.00;99.90
13684;DHT22;6914;53.552;9.908;2023-02-05T12:51:01;2.70;99.90
13684;DHT22;6914;53.552;9.908;2023-02-05T12:53:42;2.80;99.90
13684;DHT22;6914;53.552;9.908;2023-02-05T12:56:38;2.70;99.90
13684;DHT22;6914;53.552;9.908;2023-02-05T12:59:13;2.90;99.90
13684;DHT22;6914;53.552;9.908;2023-02-05T13:01:45;3.30;99.90
13684;DHT22;6914;53.552;9.908;2023-02-05T13:04:21;2.90;99.90
13684;DHT22;6914;53.552;9.908;2023-02-05T13:06:56;3.00;99.90
13684;DHT22;6914;53.552;9.908;2023-02-05T13:09:30;2.70;99.90
13684;DHT22;6914;53.552;9.908;2023-02-05T13:12:05;2.60;99.90
13684;DHT22;6914;53.552;9.908;2023-02-05T13:14:38;2.30;99.90
13684;DHT22;6914;53.552;9.908;2023-02-05T13:17:11;2.90;99.90
13684;DHT22;6914;53.552;9.908;2023-02-05T13:19:41;3.00;99.90
13684;DHT22;6914;53.552;9.908;2023-02-05T13:22:17;2.90;99.90
13684;DHT22;6914;53.552;9.908;2023-02-05T13:25:23;3.50;99.90
13684;DHT22;6914;53.552;9.908;2023-02-05T13:31:26;3.40;99.90
13684;DHT22;6914;53.552;9.908;2023-02-05T13:33:59;3.30;99.90
13684;DHT22;6914;53.552;9.908;2023-02-05T13:40:09;3.10;99.90
13684;DHT22;6914;53.552;9.908;2023-02-05T13:42:53;3.40;99.90
13684;DHT22;6914;53.552;9.908;2023-02-05T13:51:52;3.30;99.90
13684;DHT22;6914;53.552;9.908;2023-02-05T13:54:57;4.00;99.90
13684;DHT22;6914;53.552;9.908;2023-02-05T14:00:39;3.30;99.90
13684;DHT22;6914;53.552;9.908;2023-02-05T14:03:07;3.20;99.90
13684;DHT22;6914;53.552;9.908;2023-02-05T14:05:36;2.90;99.90
13684;DHT22;6914;53.552;9.908;2023-02-05T14:08:05;3.90;99.90
13684;DHT22;6914;53.552;9.908;2023-02-05T14:10:34;3.10;99.90
13684;DHT22;6914;53.552;9.908;2023-02-05T14:13:10;3.60;99.90
13684;DHT22;6914;53.552;9.908;2023-02-05T14:15:40;3.20;99.90
13684;DHT22;6914;53.552;9.908;2023-02-05T14:18:09;3.40;99.90
13684;DHT22;6914;53.552;9.908;2023-02-05T14:20:38;3.50;99.90
13684;DHT22;6914;53.552;9.908;2023-02-05T14:23:15;3.10;99.90
13684;DHT22;6914;53.552;9.908;2023-02-05T14:26:09;3.30;99.90
13684;DHT22;6914;53.552;9.908;2023-02-05T14:28:47;3.10;99.90
13684;DHT22;6914;53.552;9.908;2023-02-05T14:31:47;2.40;99.90
13684;DHT22;6914;53.552;9.908;2023-02-05T14:34:43;3.30;99.90
13684;DHT22;6914;53.552;9.908;2023-02-05T14:37:29;2.80;99.90
13684;DHT22;6914;53.552;9.908;2023-02-05T14:39:58;3.20;99.90
13684;DHT22;6914;53.552;9.908;2023-02-05T14:42:36;3.00;99.90
13684;DHT22;6914;53.552;9.908;2023-02-05T14:45:03;3.30;99.90
13684;DHT22;6914;53.552;9.908;2023-02-05T14:47:34;3.20;99.90
13684;DHT22;6914;53.552;9.908;2023-02-05T14:50:04;2.80;99.90
13684;DHT22;6914;53.552;9.908;2023-02-05T14:52:34;3.20;99.90
13684;DHT22;6914;53.552;9.908;2023-02-05T14:55:06;3.20;99.90
13684;DHT22;6914;53.552;9.908;2023-02-05T14:57:40;3.30;99.90
13684;DHT22;6914;53.552;9.908;2023-02-05T15:00:25;3.30;99.90
13684;DHT22;6914;53.552;9.908;2023-02-05T15:03:25;3.20;99.90
13684;DHT22;6914;53.552;9.908;2023-02-05T15:05:58;3.30;99.90
13684;DHT22;6914;53.552;9.908;2023-02-05T15:08:46;3.50;99.90
13684;DHT22;6914;53.552;9.908;2023-02-05T15:11:26;3.30;99.90
13684;DHT22;6914;53.552;9.908;2023-02-05T15:14:34;3.40;99.90
13684;DHT22;6914;53.552;9.908;2023-02-05T15:17:50;3.30;99.90
13684;DHT22;6914;53.552;9.908;2023-02-05T15:20:26;3.30;99.90
13684;DHT22;6914;53.552;9.908;2023-02-05T15:23:00;3.10;99.90
13684;DHT22;6914;53.552;9.908;2023-02-05T15:25:50;3.30;99.90
13684;DHT22;6914;53.552;9.908;2023-02-05T15:28:27;3.50;99.90
13684;DHT22;6914;53.552;9.908;2023-02-05T15:31:15;3.20;99.90
13684;DHT22;6914;53.552;9.908;2023-02-05T15:33:53;3.50;99.90
13684;DHT22;6914;53.552;9.908;2023-02-05T15:36:31;3.00;99.90
13684;DHT22;6914;53.552;9.908;2023-02-05T15:39:16;3.20;99.90
13684;DHT22;6914;53.552;9.908;2023-02-05T15:41:46;3.30;99.90
13684;DHT22;6914;53.552;9.908;2023-02-05T15:44:20;3.00;99.90
13684;DHT22;6914;53.552;9.908;2023-02-05T15:46:49;3.10;99.90
13684;DHT22;6914;53.552;9.908;2023-02-05T15:49:16;3.20;99.90
13684;DHT22;6914;53.552;9.908;2023-02-05T15:51:45;3.20;99.90
13684;DHT22;6914;53.552;9.908;2023-02-05T15:54:18;3.10;99.90
13684;DHT22;6914;53.552;9.908;2023-02-05T15:56:49;3.00;99.90
13684;DHT22;6914;53.552;9.908;2023-02-05T15:59:25;2.90;99.90
13684;DHT22;6914;53.552;9.908;2023-02-05T16:02:00;3.20;99.90
13684;DHT22;6914;53.552;9.908;2023-02-05T16:04:30;3.00;99.90
13684;DHT22;6914;53.552;9.908;2023-02-05T16:06:59;3.10;99.90
13684;DHT22;6914;53.552;9.908;2023-02-05T16:09:33;2.90;99.90
13684;DHT22;6914;53.552;9.908;2023-02-05T16:12:10;2.80;99.90
13684;DHT22;6914;53.552;9.908;2023-02-05T16:14:37;2.60;99.90
13684;DHT22;6914;53.552;9.908;2023-02-05T16:17:06;2.70;99.90
13684;DHT22;6914;53.552;9.908;2023-02-05T16:19:39;2.70;99.90
13684;DHT22;6914;53.552;9.908;2023-02-05T16:22:21;2.70;99.90
13684;DHT22;6914;53.552;9.908;2023-02-05T16:24:54;2.70;99.90
13684;DHT22;6914;53.552;9.908;2023-02-05T16:27:31;2.70;99.90
13684;DHT22;6914;53.552;9.908;2023-02-05T16:30:02;2.70;99.90
13684;DHT22;6914;53.552;9.908;2023-02-05T16:32:35;2.80;99.90
13684;DHT22;6914;53.552;9.908;2023-02-05T16:35:05;2.80;99.90
13684;DHT22;6914;53.552;9.908;2023-02-05T16:37:35;1.40;99.90
13684;DHT22;6914;53.552;9.908;2023-02-05T16:40:03;2.70;99.90
13684;DHT22;6914;53.552;9.908;2023-02-05T16:42:38;2.60;99.90
13684;DHT22;6914;53.552;9.908;2023-02-05T16:45:18;2.50;99.90
13684;DHT22;6914;53.552;9.908;2023-02-05T16:48:13;2.60;99.90
13684;DHT22;6914;53.552;9.908;2023-02-05T16:50:44;2.80;99.90
13684;DHT22;6914;53.552;9.908;2023-02-05T16:53:19;2.50;99.90
13684;DHT22;6914;53.552;9.908;2023-02-05T16:55:49;0.30;99.90